Time;durP1;ratioP1;P1;durP2;ratioP2;P2;SDS_P1;SDS_P2;PMS_P1;PMS_P2;Temp;Humidity;BMP_temperature;BMP_pressure;BME280_temperature;BME280_humidity;BME280_pressure;Samples;Min_cycle;Max_cycle;Signal;HPM_P1;HPM_P2
2022/03/28 00:01:19;;;;;;;27.27;12.60;;;;;;;7.95;53.90;100033.00;5221784;28;20414;-69
2022/03/28 00:04:10;;;;;;;26.10;13.68;;;;;;;7.82;55.06;100026.84;5216421;28;20053;-69
2022/03/28 00:07:00;;;;;;;27.90;14.07;;;;;;;7.93;55.55;100029.59;5205839;28;20049;-69
2022/03/28 00:09:50;;;;;;;30.42;13.13;;;;;;;7.87;55.83;100037.09;5217670;28;20060;-69
2022/03/28 00:12:41;;;;;;;32.30;13.93;;;;;;;7.57;57.80;100010.91;5221838;28;20096;-68
2022/03/28 00:15:31;;;;;;;25.48;12.85;;;;;;;7.74;57.03;100035.25;5221888;28;20431;-69
2022/03/28 00:18:21;;;;;;;25.33;12.95;;;;;;;7.72;56.84;100023.13;5207096;28;20056;-69
2022/03/28 00:21:11;;;;;;;27.63;14.38;;;;;;;7.71;57.16;100024.03;5215619;28;20041;-69
2022/03/28 00:24:02;;;;;;;32.75;15.38;;;;;;;7.71;56.74;100016.13;5221517;28;20053;-69
2022/03/28 00:26:52;;;;;;;30.45;13.27;;;;;;;7.65;55.79;100017.38;5219628;28;20122;-69
2022/03/28 00:29:42;;;;;;;36.63;13.77;;;;;;;7.61;57.29;100007.09;5224680;28;20086;-67
2022/03/28 00:32:32;;;;;;;31.98;13.25;;;;;;;7.61;58.43;100020.31;5225302;28;20136;-69
2022/03/28 00:35:24;;;;;;;31.67;13.57;;;;;;;7.67;58.00;100014.63;5221078;28;20090;-67
2022/03/28 00:38:15;;;;;;;31.15;13.57;;;;;;;7.86;56.56;100014.28;5225429;28;20059;-69
2022/03/28 00:41:05;;;;;;;32.55;14.35;;;;;;;7.85;59.12;100018.72;5225035;28;20044;-69
2022/03/28 00:43:57;;;;;;;30.58;13.75;;;;;;;7.82;57.74;100018.91;5225098;28;20064;-67
2022/03/28 00:46:47;;;;;;;28.20;12.80;;;;;;;7.65;57.15;100006.84;5224796;28;20060;-68
2022/03/28 00:49:37;;;;;;;33.05;13.30;;;;;;;7.50;57.77;100003.38;5222376;28;20064;-68
2022/03/28 00:52:28;;;;;;;27.38;13.23;;;;;;;7.17;58.23;99968.63;5224853;28;20149;-68
2022/03/28 00:55:18;;;;;;;28.55;13.43;;;;;;;7.40;58.80;99997.00;5225131;28;20056;-68
2022/03/28 00:58:08;;;;;;;28.35;13.68;;;;;;;7.33;58.05;99989.59;5219080;28;20060;-69
2022/03/28 01:00:58;;;;;;;31.40;14.05;;;;;;;7.32;58.72;99995.78;5209662;28;20519;-69
2022/03/28 01:03:48;;;;;;;33.25;13.85;;;;;;;7.28;59.08;99998.66;5225078;28;20059;-68
2022/03/28 01:06:38;;;;;;;27.73;13.45;;;;;;;7.06;58.97;99975.44;5224779;28;20087;-68
2022/03/28 01:09:29;;;;;;;29.13;13.13;;;;;;;7.12;58.25;99984.75;5224699;28;20502;-69
2022/03/28 01:12:20;;;;;;;29.27;13.85;;;;;;;7.00;58.17;99989.00;5220405;28;20426;-68
2022/03/28 01:15:12;;;;;;;32.45;13.75;;;;;;;6.75;58.16;99965.13;5209659;28;20060;-69
2022/03/28 01:18:11;;;;;;;28.27;13.25;;;;;;;6.80;58.09;99990.25;5220246;28;20072;-69
2022/03/28 01:21:04;;;;;;;28.67;13.57;;;;;;;6.88;58.25;99983.66;5209673;28;20052;-69
2022/03/28 01:23:54;;;;;;;25.77;12.90;;;;;;;6.74;58.83;99987.16;5228732;28;20060;-69
2022/03/28 01:26:45;;;;;;;29.85;12.90;;;;;;;6.72;59.43;99974.09;5224775;28;20068;-68
2022/03/28 01:29:35;;;;;;;33.60;14.52;;;;;;;6.41;61.43;99980.38;5228183;28;20057;-69
2022/03/28 01:32:25;;;;;;;26.45;13.18;;;;;;;6.55;60.54;99974.25;5209165;28;20049;-70
2022/03/28 01:35:33;;;;;;;32.13;13.57;;;;;;;6.67;59.68;99972.66;5223948;28;20175;-70
2022/03/28 01:38:24;;;;;;;31.85;12.98;;;;;;;6.50;60.25;99968.44;5218984;28;20179;-69
2022/03/28 01:41:13;;;;;;;34.40;14.80;;;;;;;6.54;60.03;99968.13;5223270;28;20067;-70
2022/03/28 01:44:05;;;;;;;27.00;13.65;;;;;;;6.52;60.63;99972.69;5202632;28;20143;-70
2022/03/28 01:46:54;;;;;;;28.80;14.20;;;;;;;6.43;60.00;99965.34;5208850;28;20072;-69
2022/03/28 01:49:45;;;;;;;30.15;13.80;;;;;;;6.31;60.01;99948.47;5207700;28;20530;-70
2022/03/28 01:52:35;;;;;;;35.88;14.55;;;;;;;6.25;60.38;99946.22;5219689;28;20507;-70
2022/03/28 01:55:25;;;;;;;32.08;14.20;;;;;;;6.37;61.06;99956.94;5208974;28;20052;-70
2022/03/28 01:58:15;;;;;;;24.88;13.75;;;;;;;6.51;60.22;99951.69;5219420;28;20060;-70
2022/03/28 02:01:05;;;;;;;28.60;13.77;;;;;;;6.40;59.76;99941.81;5209246;28;20072;-70
2022/03/28 02:03:57;;;;;;;30.50;13.32;;;;;;;6.40;60.85;99957.63;5218386;28;20049;-70
2022/03/28 02:06:47;;;;;;;32.92;14.30;;;;;;;6.43;60.79;99952.16;5223887;28;20060;-69
2022/03/28 02:09:37;;;;;;;31.48;13.23;;;;;;;6.45;59.99;99950.25;5218780;28;20605;-70
2022/03/28 02:12:27;;;;;;;31.25;14.00;;;;;;;6.27;60.80;99952.25;5223139;28;20229;-69
2022/03/28 02:15:17;;;;;;;30.95;14.88;;;;;;;6.23;61.06;99950.75;5223393;28;20060;-70
2022/03/28 02:18:07;;;;;;;37.92;13.93;;;;;;;6.23;61.60;99940.19;5223115;28;20585;-70
2022/03/28 02:20:57;;;;;;;29.77;13.40;;;;;;;6.18;59.13;99949.31;5223342;28;20049;-70
2022/03/28 02:23:47;;;;;;;32.97;14.35;;;;;;;5.96;59.93;99934.81;5238362;22;20148;-84
2022/03/28 02:26:38;;;;;;;35.10;14.02;;;;;;;5.92;61.99;99949.03;5231144;28;20157;-84
2022/03/28 02:29:28;;;;;;;30.60;13.73;;;;;;;5.98;62.36;99940.81;5242016;28;20049;-84
2022/03/28 02:32:18;;;;;;;33.58;14.55;;;;;;;5.55;64.54;99927.53;5246222;28;20049;-84
2022/03/28 02:35:08;;;;;;;32.72;14.43;;;;;;;5.89;61.19;99938.69;5219087;28;20055;-84
2022/03/28 02:38:01;;;;;;;31.20;14.60;;;;;;;5.91;63.55;99931.56;5212811;28;20056;-84
2022/03/28 02:40:51;;;;;;;33.53;15.00;;;;;;;5.82;63.73;99914.53;5207498;28;20048;-83
2022/03/28 02:43:43;;;;;;;26.88;13.50;;;;;;;5.99;62.52;99939.03;5213387;28;20056;-84
2022/03/28 02:46:33;;;;;;;27.58;13.60;;;;;;;5.95;61.89;99927.00;5210001;28;20525;-83
2022/03/28 02:49:24;;;;;;;26.00;14.02;;;;;;;5.75;62.89;99917.63;5211590;28;20110;-83
2022/03/28 02:52:14;;;;;;;39.30;15.38;;;;;;;5.91;62.19;99923.66;5211781;28;20080;-83
2022/03/28 02:55:05;;;;;;;32.30;14.18;;;;;;;5.58;61.49;99887.88;5212751;28;20045;-84
2022/03/28 02:57:55;;;;;;;26.48;13.38;;;;;;;6.17;60.46;99929.19;5198759;28;20075;-83
2022/03/28 03:00:45;;;;;;;28.13;13.75;;;;;;;5.66;60.32;99913.72;5210546;28;20621;-83
2022/03/28 03:03:36;;;;;;;29.70;12.98;;;;;;;5.61;59.92;99889.50;5198746;28;20052;-84
2022/03/28 03:06:26;;;;;;;27.65;13.18;;;;;;;5.48;60.76;99909.56;5211801;28;20368;-83
2022/03/28 03:09:16;;;;;;;29.08;13.23;;;;;;;5.54;61.25;99917.09;5212991;28;20118;-84
2022/03/28 03:12:06;;;;;;;27.85;12.93;;;;;;;5.34;62.47;99894.59;5213699;28;20130;-84
2022/03/28 03:14:57;;;;;;;33.75;13.48;;;;;;;5.43;62.76;99907.22;5200530;28;20541;-86
2022/03/28 03:17:48;;;;;;;29.58;13.43;;;;;;;5.49;61.06;99912.09;5208821;28;20102;-82
2022/03/28 03:20:38;;;;;;;28.55;14.38;;;;;;;5.24;62.22;99870.59;5230203;28;20063;-82
2022/03/28 03:23:28;;;;;;;33.13;13.70;;;;;;;5.38;62.55;99898.72;5214032;28;20053;-85
2022/03/28 03:26:18;;;;;;;31.73;13.57;;;;;;;5.17;62.86;99883.25;5220539;28;20052;-84
2022/03/28 03:29:09;;;;;;;31.38;13.52;;;;;;;5.26;62.23;99886.28;5211900;28;20529;-83
2022/03/28 03:31:59;;;;;;;32.88;13.68;;;;;;;5.09;61.25;99879.34;5214170;28;20052;-84
2022/03/28 03:34:51;;;;;;;30.70;13.20;;;;;;;5.25;62.19;99913.50;5198266;28;20049;-84
2022/03/28 03:37:41;;;;;;;31.35;14.10;;;;;;;5.36;62.15;99900.59;5221918;28;20049;-85
2022/03/28 03:40:32;;;;;;;34.30;14.60;;;;;;;5.34;63.34;99891.97;5225579;28;20049;-83
2022/03/28 03:43:25;;;;;;;31.77;14.27;;;;;;;5.19;61.95;99875.25;5203556;28;20087;-83
2022/03/28 03:46:15;;;;;;;36.45;14.30;;;;;;;5.30;61.87;99893.06;5207622;28;20052;-83
2022/03/28 03:49:05;;;;;;;47.00;15.43;;;;;;;5.45;62.78;99893.97;5208191;28;20130;-83
2022/03/28 03:51:55;;;;;;;34.30;13.75;;;;;;;5.44;61.42;99906.25;5186028;28;20080;-84
2022/03/28 03:54:45;;;;;;;38.03;14.10;;;;;;;5.39;61.48;99908.31;5194758;28;20076;-83
2022/03/28 03:57:36;;;;;;;31.73;14.07;;;;;;;5.12;62.66;99860.78;5218953;28;20053;-85
2022/03/28 04:00:26;;;;;;;31.45;13.93;;;;;;;5.36;63.21;99903.22;5210752;28;20064;-84
2022/03/28 04:03:16;;;;;;;31.13;14.18;;;;;;;5.21;62.41;99901.47;5210216;28;20048;-84
2022/03/28 04:06:10;;;;;;;29.98;13.82;;;;;;;4.82;63.41;99848.44;5210019;28;20057;-84
2022/03/28 04:09:00;;;;;;;28.92;15.02;;;;;;;5.13;62.02;99857.22;5215357;28;20117;-84
2022/03/28 04:11:51;;;;;;;34.28;13.63;;;;;;;5.04;61.73;99863.03;5219396;28;20171;-84
2022/03/28 04:14:41;;;;;;;29.38;13.35;;;;;;;5.02;61.43;99855.19;5220565;28;20060;-86
2022/03/28 04:17:42;;;;;;;31.65;13.93;;;;;;;5.34;61.70;99884.06;5210629;28;20049;-84
2022/03/28 04:20:32;;;;;;;29.67;13.93;;;;;;;5.33;61.42;99896.38;5216274;28;20075;-84
2022/03/28 04:23:24;;;;;;;37.08;15.18;;;;;;;5.01;63.25;99892.09;5221854;28;20060;-84
2022/03/28 04:26:14;;;;;;;41.00;16.35;;;;;;;5.03;64.31;99872.66;5200945;28;20202;-84
2022/03/28 04:29:04;;;;;;;35.90;15.48;;;;;;;5.19;63.22;99847.19;5230120;28;20060;-84
2022/03/28 04:31:54;;;;;;;38.28;16.15;;;;;;;5.64;62.02;99884.06;5229645;28;20060;-85
2022/03/28 04:34:45;;;;;;;32.92;14.70;;;;;;;5.69;62.00;99879.34;5229157;28;20087;-85
2022/03/28 04:37:37;;;;;;;37.33;14.98;;;;;;;5.76;61.46;99885.09;5212318;28;20108;-84
2022/03/28 04:40:27;;;;;;;33.58;13.10;;;;;;;5.47;61.74;99879.78;5199987;28;20503;-85
2022/03/28 04:43:18;;;;;;;35.83;15.35;;;;;;;5.39;62.70;99879.38;5216052;28;20119;-85
2022/03/28 04:46:08;;;;;;;32.85;15.50;;;;;;;5.42;62.54;99877.41;5207518;28;20076;-85
2022/03/28 04:48:58;;;;;;;39.58;15.80;;;;;;;5.45;62.12;99847.44;5216460;28;20207;-84
2022/03/28 04:51:49;;;;;;;32.88;15.65;;;;;;;5.69;61.91;99881.13;5232241;28;20561;-86
2022/03/28 04:54:39;;;;;;;36.22;15.15;;;;;;;5.31;62.77;99858.78;5204646;28;20416;-85
2022/03/28 04:57:29;;;;;;;41.70;14.80;;;;;;;5.25;63.25;99881.97;5217676;28;20075;-86
2022/03/28 05:00:20;;;;;;;28.95;14.57;;;;;;;5.59;63.30;99896.63;5204089;28;20045;-85
2022/03/28 05:03:10;;;;;;;32.95;13.88;;;;;;;5.39;62.89;99863.59;5214220;28;20053;-85
2022/03/28 05:06:00;;;;;;;38.85;15.35;;;;;;;5.60;63.04;99888.66;5202092;28;20111;-86
2022/03/28 05:08:50;;;;;;;42.38;14.63;;;;;;;5.41;63.50;99878.34;5220469;28;20494;-85
2022/03/28 05:11:41;;;;;;;31.92;13.88;;;;;;;5.20;62.89;99861.22;5229153;28;20045;-87
2022/03/28 05:14:31;;;;;;;31.30;14.80;;;;;;;5.20;63.76;99876.97;5220338;28;20088;-85
2022/03/28 05:17:22;;;;;;;37.92;14.00;;;;;;;5.46;63.04;99898.28;5219125;28;20103;-86
2022/03/28 05:20:12;;;;;;;32.15;13.75;;;;;;;5.49;63.15;99890.19;5215618;28;20064;-87
2022/03/28 05:23:08;;;;;;;36.53;14.50;;;;;;;5.33;63.27;99853.44;5222091;28;20093;-86
2022/03/28 05:25:58;;;;;;;34.03;14.65;;;;;;;5.38;63.91;99885.56;5205485;28;20056;-86
2022/03/28 05:28:49;;;;;;;34.83;15.20;;;;;;;5.33;61.30;99859.56;5198388;28;20056;-86
2022/03/28 05:31:39;;;;;;;31.10;13.80;;;;;;;5.16;62.70;99883.31;5215504;28;20060;-88
2022/03/28 05:34:30;;;;;;;31.67;14.15;;;;;;;5.08;62.51;99872.41;5200707;28;20056;-86
2022/03/28 05:37:20;;;;;;;32.72;13.75;;;;;;;5.07;63.00;99858.44;5233134;28;20051;-84
2022/03/28 05:40:11;;;;;;;32.72;14.75;;;;;;;5.30;63.02;99882.56;5214751;28;20052;-85
2022/03/28 05:43:02;;;;;;;35.38;14.88;;;;;;;5.49;62.69;99879.69;5208160;28;20037;-86
2022/03/28 05:45:52;;;;;;;32.55;13.50;;;;;;;5.08;63.68;99862.75;5222351;28;20052;-87
2022/03/28 05:48:44;;;;;;;31.63;14.23;;;;;;;5.73;61.61;99891.41;5235237;28;20071;-86
2022/03/28 05:51:34;;;;;;;37.55;14.65;;;;;;;5.57;61.93;99861.69;5218168;28;20055;-85
2022/03/28 05:54:25;;;;;;;30.80;14.30;;;;;;;5.78;62.13;99884.06;5212407;28;20052;-87
2022/03/28 05:57:16;;;;;;;32.58;14.95;;;;;;;5.75;62.93;99857.09;5197248;28;20518;-86
2022/03/28 06:00:09;;;;;;;41.42;15.60;;;;;;;5.98;63.91;99890.81;5218292;28;20049;-83
2022/03/28 06:03:06;;;;;;;36.78;14.85;;;;;;;5.77;63.56;99863.13;5215552;28;20422;-85
2022/03/28 06:06:16;;;;;;;30.63;14.30;;;;;;;5.88;64.42;99901.00;5215860;28;20075;-88
2022/03/28 06:09:07;;;;;;;31.13;14.43;;;;;;;6.00;63.90;99890.72;5226501;28;20384;-87
2022/03/28 06:11:57;;;;;;;36.35;14.35;;;;;;;5.84;64.00;99899.50;5201322;28;20056;-87
2022/03/28 06:14:47;;;;;;;36.55;15.02;;;;;;;5.16;66.33;99867.56;5202198;28;20049;-86
2022/03/28 06:17:38;;;;;;;43.70;15.20;;;;;;;5.68;65.76;99897.88;5216001;28;20056;-85
2022/03/28 06:20:28;;;;;;;36.88;15.90;;;;;;;5.55;63.98;99855.66;5213468;28;20067;-87
2022/03/28 06:23:19;;;;;;;36.97;17.38;;;;;;;5.78;65.70;99913.03;5216787;28;20047;-86
2022/03/28 06:26:28;;;;;;;40.90;18.20;;;;;;;6.03;64.39;99906.34;5259143;27;20407;-69
2022/03/28 06:29:18;;;;;;;35.90;19.73;;;;;;;5.61;66.39;99915.81;5250805;28;20124;-71
2022/03/28 06:32:09;;;;;;;43.92;20.15;;;;;;;5.83;65.02;99913.59;5255118;28;20055;-70
2022/03/28 06:34:59;;;;;;;43.38;20.45;;;;;;;5.75;65.79;99905.31;5235265;28;20051;-69
2022/03/28 06:37:52;;;;;;;46.47;20.48;;;;;;;6.11;64.15;99907.53;5236951;28;20052;-70
2022/03/28 06:40:42;;;;;;;40.45;20.65;;;;;;;6.38;62.53;99912.06;5238187;28;20106;-69
2022/03/28 06:43:32;;;;;;;45.58;21.27;;;;;;;6.48;62.36;99912.34;5238550;28;20055;-69
2022/03/28 06:46:21;;;;;;;42.08;20.23;;;;;;;6.59;62.61;99900.22;5241725;28;20044;-69
2022/03/28 06:49:12;;;;;;;40.40;18.85;;;;;;;6.96;60.77;99908.41;5233153;28;20099;-70
2022/03/28 06:52:02;;;;;;;41.55;18.02;;;;;;;7.21;60.15;99912.94;5224394;28;20045;-69
2022/03/28 06:54:53;;;;;;;36.22;18.40;;;;;;;7.07;60.03;99903.28;5239632;28;20124;-67
2022/03/28 06:57:43;;;;;;;37.05;16.85;;;;;;;7.33;59.25;99906.00;5231965;28;20045;-68
2022/03/28 07:00:34;;;;;;;40.13;17.85;;;;;;;7.73;58.22;99908.63;5231650;28;20572;-68
2022/03/28 07:03:25;;;;;;;42.60;18.42;;;;;;;7.78;58.22;99903.88;5227459;28;20068;-69
2022/03/28 07:06:15;;;;;;;35.05;16.98;;;;;;;7.72;58.16;99901.69;5230171;28;20056;-69
2022/03/28 07:09:05;;;;;;;35.90;16.40;;;;;;;8.00;58.81;99888.28;5225670;28;20052;-68
2022/03/28 07:11:55;;;;;;;39.95;17.67;;;;;;;8.06;58.02;99899.38;5239284;28;20053;-68
2022/03/28 07:14:45;;;;;;;45.53;17.65;;;;;;;8.66;56.49;99867.81;5230860;28;20048;-68
2022/03/28 07:17:52;;;;;;;38.28;17.08;;;;;;;9.44;54.61;99895.66;5227000;28;20057;-69
2022/03/28 07:20:43;;;;;;;44.05;16.67;;;;;;;9.80;53.52;99856.72;5228582;28;20103;-69
2022/03/28 07:23:33;;;;;;;35.88;17.25;;;;;;;10.74;52.64;99895.34;5228088;28;20049;-70
2022/03/28 07:26:23;;;;;;;43.35;15.73;;;;;;;12.14;48.45;99896.09;5238502;28;20041;-70
2022/03/28 07:29:14;;;;;;;42.40;15.95;;;;;;;12.94;45.97;99884.63;5233524;28;20433;-69
2022/03/28 07:32:05;;;;;;;36.63;14.85;;;;;;;13.54;44.24;99889.06;5234493;28;20446;-68
2022/03/28 07:34:55;;;;;;;33.33;15.02;;;;;;;14.20;42.53;99885.56;5232424;28;20060;-69
2022/03/28 07:37:46;;;;;;;37.17;14.27;;;;;;;14.96;40.08;99880.06;5224247;28;20186;-69
2022/03/28 07:40:37;;;;;;;29.60;13.32;;;;;;;15.61;37.04;99879.84;5211947;28;20075;-70
2022/03/28 07:43:27;;;;;;;38.50;14.48;;;;;;;15.79;36.32;99872.66;5215249;28;20067;-69
2022/03/28 07:46:18;;;;;;;29.25;13.18;;;;;;;16.24;35.35;99874.31;5220546;28;20056;-69
2022/03/28 07:49:08;;;;;;;34.63;14.93;;;;;;;16.28;36.13;99861.44;5216101;28;20203;-69
2022/03/28 07:51:58;;;;;;;37.83;14.82;;;;;;;16.62;35.98;99870.31;5211762;28;20084;-69
2022/03/28 07:54:49;;;;;;;33.80;14.27;;;;;;;17.44;33.16;99857.13;5208755;28;20060;-69
2022/03/28 07:57:40;;;;;;;28.23;13.85;;;;;;;17.24;34.97;99853.09;5210193;28;20056;-69
2022/03/28 08:00:31;;;;;;;29.30;14.15;;;;;;;17.30;34.73;99849.75;5210266;28;20060;-69
2022/03/28 08:03:21;;;;;;;34.22;13.90;;;;;;;18.12;33.19;99861.28;5212402;28;20049;-69
2022/03/28 08:06:11;;;;;;;38.00;14.57;;;;;;;18.29;33.27;99860.22;5218908;28;20049;-69
2022/03/28 08:09:02;;;;;;;40.67;14.70;;;;;;;18.77;31.96;99860.22;5209612;28;20056;-69
2022/03/28 08:11:52;;;;;;;41.10;14.95;;;;;;;18.22;32.83;99856.56;5215590;28;20509;-69
2022/03/28 08:14:43;;;;;;;37.58;15.10;;;;;;;19.04;33.24;99844.63;5216214;28;20677;-68
2022/03/28 08:17:40;;;;;;;31.58;15.00;;;;;;;19.53;30.63;99855.88;5219990;28;20059;-68
2022/03/28 08:20:30;;;;;;;34.30;14.88;;;;;;;19.13;34.23;99843.56;5222318;28;20050;-68
2022/03/28 08:23:20;;;;;;;45.45;15.32;;;;;;;19.70;30.77;99845.81;5237623;22;20056;-68
2022/03/28 08:26:11;;;;;;;32.78;15.43;;;;;;;19.76;32.17;99842.41;5242211;28;20556;-66
2022/03/28 08:29:00;;;;;;;40.25;14.70;;;;;;;19.55;31.33;99837.69;5242632;28;20429;-66
2022/03/28 08:31:50;;;;;;;41.13;16.02;;;;;;;20.21;30.68;99840.63;5243370;28;20106;-68
2022/03/28 08:34:40;;;;;;;33.15;14.85;;;;;;;20.43;29.43;99830.78;5225607;28;20123;-66
2022/03/28 08:37:31;;;;;;;36.72;14.98;;;;;;;20.43;31.14;99820.00;5222340;28;20053;-68
2022/03/28 08:40:22;;;;;;;38.33;15.65;;;;;;;20.75;30.03;99826.84;5222116;28;20103;-67
2022/03/28 08:43:17;;;;;;;39.75;16.27;;;;;;;20.67;30.19;99823.44;5222208;28;20442;-67
2022/03/28 08:46:09;;;;;;;35.78;15.13;;;;;;;20.85;31.18;99823.84;5218145;28;20182;-68
2022/03/28 08:48:59;;;;;;;36.30;16.38;;;;;;;21.67;27.23;99826.13;5220910;28;20045;-67
2022/03/28 08:51:51;;;;;;;40.35;15.93;;;;;;;21.88;28.25;99817.13;5221776;28;20064;-67
2022/03/28 08:54:43;;;;;;;35.65;17.67;;;;;;;21.24;30.70;99814.50;5206951;28;20469;-67
2022/03/28 08:57:33;;;;;;;36.28;15.80;;;;;;;21.77;28.81;99815.00;5203225;28;20053;-67
2022/03/28 09:00:23;;;;;;;42.80;15.98;;;;;;;21.40;27.87;99814.28;5221351;28;20045;-68
2022/03/28 09:03:14;;;;;;;29.95;14.82;;;;;;;20.94;27.97;99809.22;5221706;28;20045;-67
2022/03/28 09:06:32;;;;;;;40.35;16.15;;;;;;;21.89;29.38;99821.53;5220954;28;20059;-68
2022/03/28 09:09:26;;;;;;;31.35;15.40;;;;;;;20.97;27.14;99814.25;5220656;28;20064;-67
2022/03/28 09:12:16;;;;;;;33.67;15.95;;;;;;;21.25;29.03;99799.97;5193532;28;20068;-67
2022/03/28 09:15:09;;;;;;;32.22;15.60;;;;;;;22.36;28.02;99803.75;5222742;28;20060;-67
2022/03/28 09:17:59;;;;;;;30.10;16.05;;;;;;;22.22;25.85;99777.72;5217926;28;20110;-67
2022/03/28 09:20:51;;;;;;;34.42;16.25;;;;;;;22.74;27.86;99789.75;5221770;28;20529;-68
2022/03/28 09:23:46;;;;;;;31.02;15.85;;;;;;;22.43;26.05;99782.16;5217703;28;20145;-67
2022/03/28 09:26:36;;;;;;;;;;;;;;;21.70;26.45;99771.75;5222885;28;20098;-67
2022/03/28 09:29:27;;;;;;;29.70;16.30;;;;;;;22.87;28.58;99764.63;5217809;28;19940;-67
2022/03/28 09:32:24;;;;;;;32.13;16.85;;;;;;;23.65;25.11;99754.06;5221565;28;20049;-67
2022/03/28 09:35:21;;;;;;;31.92;16.58;;;;;;;22.50;25.44;99766.81;5222243;28;20053;-67
2022/03/28 09:38:13;;;;;;;34.17;17.15;;;;;;;22.84;28.85;99752.34;5222042;28;20049;-67
2022/03/28 09:41:06;;;;;;;33.67;16.55;;;;;;;23.20;26.88;99756.56;5218378;28;20499;-67
2022/03/28 09:43:56;;;;;;;30.75;16.75;;;;;;;23.68;26.10;99753.69;5221167;28;20146;-69
2022/03/28 09:46:46;;;;;;;33.88;16.65;;;;;;;23.39;26.43;99739.50;5205142;28;20142;-67
2022/03/28 09:49:38;;;;;;;37.33;16.40;;;;;;;24.04;25.70;99734.22;5219774;28;20079;-67
2022/03/28 09:52:32;;;;;;;36.15;16.40;;;;;;;23.12;26.21;99745.97;5222277;28;20514;-67
2022/03/28 09:55:22;;;;;;;32.03;17.58;;;;;;;22.77;25.79;99737.97;5206758;28;20049;-67
2022/03/28 09:58:46;;;;;;;37.00;17.95;;;;;;;22.25;26.52;99731.34;5222198;28;20059;-67
2022/03/28 10:01:40;;;;;;;36.05;18.35;;;;;;;23.50;27.26;99726.38;5218182;28;20508;-67
2022/03/28 10:04:31;;;;;;;40.92;17.98;;;;;;;22.83;28.57;99722.81;5221533;28;20053;-67
2022/03/28 10:07:23;;;;;;;34.10;17.55;;;;;;;22.96;27.42;99722.84;5217713;28;20117;-67
2022/03/28 10:10:13;;;;;;;32.58;17.05;;;;;;;22.79;26.16;99721.56;5221728;28;20060;-67
2022/03/28 10:13:04;;;;;;;38.47;17.58;;;;;;;23.57;26.50;99719.09;5222336;28;20059;-67
2022/03/28 10:15:55;;;;;;;34.42;17.30;;;;;;;23.63;24.18;99707.41;5206540;28;20053;-67
2022/03/28 10:18:46;;;;;;;35.63;16.85;;;;;;;23.83;25.57;99708.22;5217196;28;20048;-67
2022/03/28 10:21:37;;;;;;;39.15;17.27;;;;;;;22.72;24.06;99684.53;5221888;28;20131;-67
2022/03/28 10:24:30;;;;;;;32.03;16.17;;;;;;;24.05;25.29;99689.00;5221829;28;20128;-67
2022/03/28 10:27:21;;;;;;;30.42;17.08;;;;;;;24.56;24.38;99685.44;5221847;28;20131;-67
2022/03/28 10:30:16;;;;;;;30.52;15.93;;;;;;;23.31;24.04;99692.88;5221812;28;20117;-67
2022/03/28 10:33:19;;;;;;;30.10;15.88;;;;;;;23.08;23.47;99688.75;5221874;28;20087;-67
2022/03/28 10:36:38;;;;;;;37.83;15.98;;;;;;;24.10;23.43;99678.34;5217309;28;20083;-67
2022/03/28 10:39:36;;;;;;;29.63;15.02;;;;;;;24.25;26.13;99656.41;5219747;28;20056;-67
2022/03/28 10:42:26;;;;;;;36.33;16.95;;;;;;;25.02;22.30;99668.00;5221413;28;20057;-67
2022/03/28 10:45:19;;;;;;;35.72;17.27;;;;;;;23.83;25.97;99651.34;5221717;28;20095;-67
2022/03/28 10:48:11;;;;;;;34.53;16.63;;;;;;;24.36;25.35;99658.41;5215298;28;20053;-67
2022/03/28 10:51:12;;;;;;;40.45;17.58;;;;;;;23.56;25.00;99653.28;5207150;28;20072;-67
2022/03/28 10:54:07;;;;;;;28.95;16.10;;;;;;;23.81;27.29;99637.22;5214948;28;20128;-67
2022/03/28 10:57:01;;;;;;;36.65;16.83;;;;;;;23.19;24.63;99644.81;5221231;28;20049;-67
2022/03/28 11:00:08;;;;;;;37.33;16.15;;;;;;;21.78;26.68;99642.00;5222183;28;20103;-67
2022/03/28 11:03:02;;;;;;;35.55;16.92;;;;;;;22.39;26.78;99633.13;5221782;28;20084;-68
2022/03/28 11:05:54;;;;;;;37.38;16.88;;;;;;;22.28;25.69;99628.31;5218242;28;20128;-67
2022/03/28 11:08:56;;;;;;;32.55;16.38;;;;;;;21.15;26.64;99621.50;5215960;28;20132;-67
2022/03/28 11:11:57;;;;;;;32.22;15.85;;;;;;;22.48;27.99;99617.53;5222588;28;20056;-67
2022/03/28 11:14:50;;;;;;;32.90;15.98;;;;;;;22.93;26.03;99610.53;5221767;28;20143;-67
2022/03/28 11:18:04;;;;;;;38.58;16.67;;;;;;;22.33;27.34;99611.50;5224670;28;20060;-68
2022/03/28 11:20:54;;;;;;;38.60;17.15;;;;;;;21.79;26.81;99613.19;5223204;28;20052;-69
2022/03/28 11:23:44;;;;;;;32.63;17.67;;;;;;;22.61;28.03;99600.50;5213253;28;20111;-70
2022/03/28 11:26:35;;;;;;;36.63;16.50;;;;;;;22.10;28.44;99599.16;5224969;28;20067;-69
2022/03/28 11:29:28;;;;;;;39.05;16.20;;;;;;;21.19;27.87;99593.09;5210756;28;20060;-70
2022/03/28 11:32:19;;;;;;;33.90;16.52;;;;;;;22.19;29.00;99592.56;5224628;28;20049;-68
2022/03/28 11:35:13;;;;;;;37.25;17.17;;;;;;;22.71;26.09;99588.25;5225255;28;20126;-68
2022/03/28 11:38:04;;;;;;;32.93;17.20;;;;;;;22.83;26.22;99588.44;5224803;28;20068;-71
2022/03/28 11:40:55;;;;;;;33.53;15.95;;;;;;;22.45;28.42;99585.50;5219843;28;20055;-72
2022/03/28 11:43:51;;;;;;;34.15;16.77;;;;;;;22.08;27.82;99576.06;5209981;28;20199;-69
2022/03/28 11:46:41;;;;;;;33.75;17.27;;;;;;;22.22;27.44;99570.53;5216474;28;20614;-67
2022/03/28 11:49:31;;;;;;;47.28;18.40;;;;;;;21.97;27.81;99547.81;5215922;28;20178;-68
2022/03/28 11:52:24;;;;;;;40.85;17.05;;;;;;;22.69;27.76;99551.66;5222235;28;20052;-69
2022/03/28 11:55:21;;;;;;;42.50;18.43;;;;;;;22.77;26.31;99510.06;5224798;28;20187;-67
2022/03/28 11:58:19;;;;;;;29.05;15.35;;;;;;;22.77;27.84;99539.78;5219467;28;20100;-67
2022/03/28 12:01:13;;;;;;;30.23;16.00;;;;;;;22.48;29.63;99544.56;5224435;28;20053;-69
2022/03/28 12:04:04;;;;;;;39.17;16.73;;;;;;;22.57;27.68;99526.28;5224470;28;20150;-68
2022/03/28 12:06:54;;;;;;;38.58;17.02;;;;;;;21.99;29.66;99514.19;5224164;28;20048;-68
2022/03/28 12:09:44;;;;;;;43.83;17.48;;;;;;;21.48;27.94;99519.22;5224931;28;20053;-68
2022/03/28 12:12:34;;;;;;;32.13;16.60;;;;;;;21.59;29.28;99491.66;5224153;28;20145;-67
2022/03/28 12:15:25;;;;;;;34.00;16.15;;;;;;;21.33;31.25;99513.94;5218846;28;20170;-68
2022/03/28 12:18:21;;;;;;;31.58;15.88;;;;;;;20.24;30.38;99500.13;5221249;28;20045;-68
2022/03/28 12:21:11;;;;;;;32.95;16.15;;;;;;;21.73;30.74;99496.06;5222769;28;20063;-68
2022/03/28 12:24:06;;;;;;;39.53;17.48;;;;;;;21.04;29.58;99478.13;5219505;28;20053;-68
2022/03/28 12:26:59;;;;;;;42.33;16.88;;;;;;;22.01;28.84;99485.09;5212391;28;20056;-68
2022/03/28 12:29:51;;;;;;;34.15;16.83;;;;;;;21.19;30.65;99469.91;5214251;28;20059;-67
2022/03/28 12:32:44;;;;;;;38.20;17.45;;;;;;;21.08;29.43;99484.75;5228121;28;20521;-68
2022/03/28 12:35:35;;;;;;;33.85;17.83;;;;;;;21.41;29.89;99473.31;5224019;28;20060;-67
2022/03/28 12:38:29;;;;;;;35.13;16.42;;;;;;;22.35;28.69;99472.47;5227587;28;20064;-67
2022/03/28 12:41:21;;;;;;;42.65;16.73;;;;;;;22.14;30.04;99459.97;5223914;28;20076;-68
2022/03/28 12:44:16;;;;;;;36.65;15.93;;;;;;;21.88;30.62;99465.34;5220662;28;20067;-66
2022/03/28 12:47:07;;;;;;;35.42;16.55;;;;;;;22.21;29.93;99444.63;5223376;28;20060;-66
2022/03/28 12:49:57;;;;;;;41.92;16.08;;;;;;;21.15;30.23;99447.03;5224440;28;20199;-66
2022/03/28 12:52:47;;;;;;;29.85;15.93;;;;;;;20.69;31.22;99450.34;5221314;28;20511;-66
2022/03/28 12:55:38;;;;;;;35.58;16.15;;;;;;;20.70;30.61;99446.63;5222544;28;20088;-66
2022/03/28 12:58:33;;;;;;;33.53;16.17;;;;;;;21.05;29.69;99417.75;5191750;28;20063;-65
2022/03/28 13:01:26;;;;;;;31.98;14.95;;;;;;;21.59;30.67;99429.59;5205184;28;20055;-66
2022/03/28 13:04:23;;;;;;;35.53;16.38;;;;;;;21.83;29.18;99414.69;5222779;28;20098;-65
2022/03/28 13:07:21;;;;;;;45.03;17.25;;;;;;;21.96;30.00;99409.28;5221575;28;20088;-66
2022/03/28 13:10:16;;;;;;;29.55;15.55;;;;;;;22.44;28.55;99411.75;5224124;28;20137;-66
2022/03/28 13:13:06;;;;;;;32.13;15.50;;;;;;;22.48;28.84;99395.94;5221039;28;20107;-66
2022/03/28 13:15:56;;;;;;;30.85;15.98;;;;;;;22.41;28.91;99398.66;5221404;28;20041;-67